sensor_id;sensor_type;location;lat;lon;timestamp;temperature;humidity
85706;DHT22;76142;52.376;9.712;2024-01-30T00:00:23;6.60;99.90
85706;DHT22;76142;52.376;9.712;2024-01-30T00:02:49;6.60;99.90
85706;DHT22;76142;52.376;9.712;2024-01-30T00:05:15;6.50;99.90
85706;DHT22;76142;52.376;9.712;2024-01-30T00:07:41;6.50;99.90
85706;DHT22;76142;52.376;9.712;2024-01-30T00:10:07;6.50;99.90
85706;DHT22;76142;52.376;9.712;2024-01-30T00:12:33;6.50;1.00
85706;DHT22;76142;52.376;9.712;2024-01-30T00:14:58;6.50;1.00
85706;DHT22;76142;52.376;9.712;2024-01-30T00:17:25;6.50;1.00
85706;DHT22;76142;52.376;9.712;2024-01-30T00:19:51;6.50;1.00
85706;DHT22;76142;52.376;9.712;2024-01-30T00:22:17;6.50;1.00
85706;DHT22;76142;52.376;9.712;2024-01-30T00:24:43;6.50;1.00
85706;DHT22;76142;52.376;9.712;2024-01-30T00:27:09;6.50;1.00
85706;DHT22;76142;52.376;9.712;2024-01-30T00:29:35;6.50;1.00
85706;DHT22;76142;52.376;9.712;2024-01-30T00:32:01;6.50;1.00
85706;DHT22;76142;52.376;9.712;2024-01-30T00:34:27;6.50;1.00
85706;DHT22;76142;52.376;9.712;2024-01-30T00:36:52;6.50;1.00
85706;DHT22;76142;52.376;9.712;2024-01-30T00:39:18;6.50;1.00
85706;DHT22;76142;52.376;9.712;2024-01-30T00:41:45;6.50;1.00
85706;DHT22;76142;52.376;9.712;2024-01-30T00:44:11;6.50;1.00
85706;DHT22;76142;52.376;9.712;2024-01-30T00:46:36;6.40;1.00
85706;DHT22;76142;52.376;9.712;2024-01-30T00:49:03;6.40;1.00
85706;DHT22;76142;52.376;9.712;2024-01-30T00:51:29;6.40;1.00
85706;DHT22;76142;52.376;9.712;2024-01-30T00:53:55;6.40;1.00
85706;DHT22;76142;52.376;9.712;2024-01-30T00:56:22;6.30;1.00
85706;DHT22;76142;52.376;9.712;2024-01-30T00:58:48;6.30;1.00
85706;DHT22;76142;52.376;9.712;2024-01-30T01:01:14;6.30;1.00
85706;DHT22;76142;52.376;9.712;2024-01-30T01:03:40;6.30;1.00
85706;DHT22;76142;52.376;9.712;2024-01-30T01:06:06;6.20;1.00
85706;DHT22;76142;52.376;9.712;2024-01-30T01:08:32;6.20;1.00
85706;DHT22;76142;52.376;9.712;2024-01-30T01:10:58;6.30;1.00
85706;DHT22;76142;52.376;9.712;2024-01-30T01:13:24;6.20;1.00
85706;DHT22;76142;52.376;9.712;2024-01-30T01:15:49;6.20;1.00
85706;DHT22;76142;52.376;9.712;2024-01-30T01:18:15;6.20;1.00
85706;DHT22;76142;52.376;9.712;2024-01-30T01:20:41;6.20;1.00
85706;DHT22;76142;52.376;9.712;2024-01-30T01:23:07;6.20;1.00
85706;DHT22;76142;52.376;9.712;2024-01-30T01:25:33;6.10;1.00
85706;DHT22;76142;52.376;9.712;2024-01-30T01:27:59;6.10;1.00
85706;DHT22;76142;52.376;9.712;2024-01-30T01:30:27;6.10;1.00
85706;DHT22;76142;52.376;9.712;2024-01-30T01:32:54;6.20;1.00
85706;DHT22;76142;52.376;9.712;2024-01-30T01:35:25;6.20;1.00
85706;DHT22;76142;52.376;9.712;2024-01-30T01:37:51;6.20;1.00
85706;DHT22;76142;52.376;9.712;2024-01-30T01:40:22;6.20;1.00
85706;DHT22;76142;52.376;9.712;2024-01-30T01:42:50;6.20;1.00
85706;DHT22;76142;52.376;9.712;2024-01-30T01:45:16;6.20;1.00
85706;DHT22;76142;52.376;9.712;2024-01-30T01:47:42;6.20;1.00
85706;DHT22;76142;52.376;9.712;2024-01-30T01:50:08;6.20;1.00
85706;DHT22;76142;52.376;9.712;2024-01-30T01:52:37;6.20;1.00
85706;DHT22;76142;52.376;9.712;2024-01-30T01:55:03;6.20;1.00
85706;DHT22;76142;52.376;9.712;2024-01-30T01:57:29;6.20;1.00
85706;DHT22;76142;52.376;9.712;2024-01-30T01:59:55;6.20;1.00
85706;DHT22;76142;52.376;9.712;2024-01-30T02:02:24;6.20;1.00
85706;DHT22;76142;52.376;9.712;2024-01-30T02:04:52;6.30;1.00
85706;DHT22;76142;52.376;9.712;2024-01-30T02:07:18;6.30;1.00
85706;DHT22;76142;52.376;9.712;2024-01-30T02:09:43;6.40;1.00
85706;DHT22;76142;52.376;9.712;2024-01-30T02:12:09;6.30;1.00
85706;DHT22;76142;52.376;9.712;2024-01-30T02:14:47;6.40;1.00
85706;DHT22;76142;52.376;9.712;2024-01-30T02:17:15;6.40;1.00
85706;DHT22;76142;52.376;9.712;2024-01-30T02:19:41;6.40;1.00
85706;DHT22;76142;52.376;9.712;2024-01-30T02:22:08;6.40;1.00
85706;DHT22;76142;52.376;9.712;2024-01-30T02:24:34;6.40;1.00
85706;DHT22;76142;52.376;9.712;2024-01-30T02:27:00;6.40;1.00
85706;DHT22;76142;52.376;9.712;2024-01-30T02:29:26;6.40;1.00
85706;DHT22;76142;52.376;9.712;2024-01-30T02:31:52;6.30;1.00
85706;DHT22;76142;52.376;9.712;2024-01-30T02:34:18;6.30;1.00
85706;DHT22;76142;52.376;9.712;2024-01-30T02:36:45;6.30;1.00
85706;DHT22;76142;52.376;9.712;2024-01-30T02:39:11;6.30;1.00
85706;DHT22;76142;52.376;9.712;2024-01-30T02:41:37;6.30;1.00
85706;DHT22;76142;52.376;9.712;2024-01-30T02:44:03;6.30;1.00
85706;DHT22;76142;52.376;9.712;2024-01-30T02:46:29;6.30;1.00
85706;DHT22;76142;52.376;9.712;2024-01-30T02:48:55;6.30;1.00
85706;DHT22;76142;52.376;9.712;2024-01-30T02:51:21;6.40;1.00
85706;DHT22;76142;52.376;9.712;2024-01-30T02:53:47;6.40;1.00
85706;DHT22;76142;52.376;9.712;2024-01-30T02:56:13;6.50;1.00
85706;DHT22;76142;52.376;9.712;2024-01-30T02:58:42;6.50;1.00
85706;DHT22;76142;52.376;9.712;2024-01-30T03:01:08;6.50;1.00
85706;DHT22;76142;52.376;9.712;2024-01-30T03:03:34;6.50;1.00
85706;DHT22;76142;52.376;9.712;2024-01-30T03:06:01;6.50;1.00
85706;DHT22;76142;52.376;9.712;2024-01-30T03:08:28;6.50;1.00
85706;DHT22;76142;52.376;9.712;2024-01-30T03:10:54;6.50;1.00
85706;DHT22;76142;52.376;9.712;2024-01-30T03:13:20;6.50;1.00
85706;DHT22;76142;52.376;9.712;2024-01-30T03:15:46;6.50;1.00
85706;DHT22;76142;52.376;9.712;2024-01-30T03:18:12;6.50;1.00
85706;DHT22;76142;52.376;9.712;2024-01-30T03:20:37;6.50;1.00
85706;DHT22;76142;52.376;9.712;2024-01-30T03:23:04;6.50;1.00
85706;DHT22;76142;52.376;9.712;2024-01-30T03:25:31;6.50;1.00
85706;DHT22;76142;52.376;9.712;2024-01-30T03:27:57;6.50;1.00
85706;DHT22;76142;52.376;9.712;2024-01-30T03:30:23;6.50;1.00
85706;DHT22;76142;52.376;9.712;2024-01-30T03:32:49;6.50;1.00
85706;DHT22;76142;52.376;9.712;2024-01-30T03:35:14;6.50;1.00
85706;DHT22;76142;52.376;9.712;2024-01-30T03:37:40;6.50;1.00
85706;DHT22;76142;52.376;9.712;2024-01-30T03:40:06;6.60;1.00
85706;DHT22;76142;52.376;9.712;2024-01-30T03:42:32;6.50;1.00
85706;DHT22;76142;52.376;9.712;2024-01-30T03:44:58;6.50;1.00
85706;DHT22;76142;52.376;9.712;2024-01-30T03:47:23;6.50;1.00
85706;DHT22;76142;52.376;9.712;2024-01-30T03:49:49;6.50;1.00
85706;DHT22;76142;52.376;9.712;2024-01-30T03:52:15;6.50;1.00
85706;DHT22;76142;52.376;9.712;2024-01-30T03:54:40;6.50;1.00
85706;DHT22;76142;52.376;9.712;2024-01-30T03:57:06;6.50;1.00
85706;DHT22;76142;52.376;9.712;2024-01-30T03:59:32;6.50;1.00
85706;DHT22;76142;52.376;9.712;2024-01-30T04:01:58;6.50;1.00
85706;DHT22;76142;52.376;9.712;2024-01-30T04:04:25;6.50;1.00
85706;DHT22;76142;52.376;9.712;2024-01-30T04:06:51;6.40;1.00
85706;DHT22;76142;52.376;9.712;2024-01-30T04:09:17;6.50;1.00
85706;DHT22;76142;52.376;9.712;2024-01-30T04:11:42;6.40;1.00
85706;DHT22;76142;52.376;9.712;2024-01-30T04:14:08;6.40;1.00
85706;DHT22;76142;52.376;9.712;2024-01-30T04:16:34;6.40;1.00
85706;DHT22;76142;52.376;9.712;2024-01-30T04:19:00;6.40;1.00
85706;DHT22;76142;52.376;9.712;2024-01-30T04:21:26;6.40;1.00
85706;DHT22;76142;52.376;9.712;2024-01-30T04:23:51;6.30;1.00
85706;DHT22;76142;52.376;9.712;2024-01-30T04:26:17;6.30;1.00
85706;DHT22;76142;52.376;9.712;2024-01-30T04:28:44;6.30;1.00
85706;DHT22;76142;52.376;9.712;2024-01-30T04:31:11;6.30;1.00
85706;DHT22;76142;52.376;9.712;2024-01-30T04:33:37;6.30;1.00
85706;DHT22;76142;52.376;9.712;2024-01-30T04:36:03;6.30;1.00
85706;DHT22;76142;52.376;9.712;2024-01-30T04:38:29;6.30;1.00
85706;DHT22;76142;52.376;9.712;2024-01-30T04:40:55;6.20;1.00
85706;DHT22;76142;52.376;9.712;2024-01-30T04:43:21;6.20;1.00
85706;DHT22;76142;52.376;9.712;2024-01-30T04:45:47;6.20;1.00
85706;DHT22;76142;52.376;9.712;2024-01-30T04:48:13;6.20;1.00
85706;DHT22;76142;52.376;9.712;2024-01-30T04:50:39;6.20;1.00
85706;DHT22;76142;52.376;9.712;2024-01-30T04:53:05;6.20;1.00
85706;DHT22;76142;52.376;9.712;2024-01-30T04:55:31;6.20;1.00
85706;DHT22;76142;52.376;9.712;2024-01-30T04:57:57;6.20;1.00
85706;DHT22;76142;52.376;9.712;2024-01-30T05:00:22;6.20;1.00
85706;DHT22;76142;52.376;9.712;2024-01-30T05:02:48;6.30;1.00
85706;DHT22;76142;52.376;9.712;2024-01-30T05:05:14;6.30;1.00
85706;DHT22;76142;52.376;9.712;2024-01-30T05:07:41;6.30;1.00
85706;DHT22;76142;52.376;9.712;2024-01-30T05:10:07;6.30;1.00
85706;DHT22;76142;52.376;9.712;2024-01-30T05:12:34;6.40;1.00
85706;DHT22;76142;52.376;9.712;2024-01-30T05:14:59;6.40;1.00
85706;DHT22;76142;52.376;9.712;2024-01-30T05:17:25;6.50;1.00
85706;DHT22;76142;52.376;9.712;2024-01-30T05:19:51;6.50;1.00
85706;DHT22;76142;52.376;9.712;2024-01-30T05:22:16;6.50;1.00
85706;DHT22;76142;52.376;9.712;2024-01-30T05:24:44;6.50;1.00
85706;DHT22;76142;52.376;9.712;2024-01-30T05:27:09;6.50;1.00
85706;DHT22;76142;52.376;9.712;2024-01-30T05:29:35;6.50;1.00
85706;DHT22;76142;52.376;9.712;2024-01-30T05:32:01;6.40;1.00
85706;DHT22;76142;52.376;9.712;2024-01-30T05:34:27;6.40;1.00
85706;DHT22;76142;52.376;9.712;2024-01-30T05:36:53;6.40;1.00
85706;DHT22;76142;52.376;9.712;2024-01-30T05:39:19;6.40;1.00
85706;DHT22;76142;52.376;9.712;2024-01-30T05:41:45;6.30;1.00
85706;DHT22;76142;52.376;9.712;2024-01-30T05:44:10;6.30;1.00
85706;DHT22;76142;52.376;9.712;2024-01-30T05:46:36;6.30;1.00
85706;DHT22;76142;52.376;9.712;2024-01-30T05:49:02;6.30;1.00
85706;DHT22;76142;52.376;9.712;2024-01-30T05:51:28;6.30;1.00
85706;DHT22;76142;52.376;9.712;2024-01-30T05:53:54;6.30;1.00
85706;DHT22;76142;52.376;9.712;2024-01-30T05:56:20;6.30;1.00
85706;DHT22;76142;52.376;9.712;2024-01-30T05:58:46;6.30;1.00
85706;DHT22;76142;52.376;9.712;2024-01-30T06:01:11;6.30;1.00
85706;DHT22;76142;52.376;9.712;2024-01-30T06:03:37;6.30;1.00
85706;DHT22;76142;52.376;9.712;2024-01-30T06:06:04;6.30;1.00
85706;DHT22;76142;52.376;9.712;2024-01-30T06:08:30;6.20;1.00
85706;DHT22;76142;52.376;9.712;2024-01-30T06:10:55;6.20;1.00
85706;DHT22;76142;52.376;9.712;2024-01-30T06:13:21;6.20;1.00
85706;DHT22;76142;52.376;9.712;2024-01-30T06:15:46;6.20;1.00
85706;DHT22;76142;52.376;9.712;2024-01-30T06:18:12;6.20;1.00
85706;DHT22;76142;52.376;9.712;2024-01-30T06:20:38;6.20;1.00
85706;DHT22;76142;52.376;9.712;2024-01-30T06:23:03;6.20;1.00
85706;DHT22;76142;52.376;9.712;2024-01-30T06:25:29;6.20;1.00
85706;DHT22;76142;52.376;9.712;2024-01-30T06:27:55;6.20;1.00
85706;DHT22;76142;52.376;9.712;2024-01-30T06:30:20;6.10;1.00
85706;DHT22;76142;52.376;9.712;2024-01-30T06:32:46;6.20;1.00
85706;DHT22;76142;52.376;9.712;2024-01-30T06:35:11;6.10;1.00
85706;DHT22;76142;52.376;9.712;2024-01-30T06:37:38;6.20;1.00
85706;DHT22;76142;52.376;9.712;2024-01-30T06:40:03;6.20;1.00
85706;DHT22;76142;52.376;9.712;2024-01-30T06:42:30;6.20;1.00
85706;DHT22;76142;52.376;9.712;2024-01-30T06:44:56;6.10;1.00
85706;DHT22;76142;52.376;9.712;2024-01-30T06:47:22;6.10;1.00
85706;DHT22;76142;52.376;9.712;2024-01-30T06:49:47;6.20;1.00
85706;DHT22;76142;52.376;9.712;2024-01-30T06:52:13;6.20;1.00
85706;DHT22;76142;52.376;9.712;2024-01-30T06:54:39;6.20;1.00
85706;DHT22;76142;52.376;9.712;2024-01-30T06:57:05;6.20;1.00
85706;DHT22;76142;52.376;9.712;2024-01-30T06:59:34;6.20;1.00
85706;DHT22;76142;52.376;9.712;2024-01-30T07:02:00;6.20;1.00
85706;DHT22;76142;52.376;9.712;2024-01-30T07:04:25;6.10;1.00
85706;DHT22;76142;52.376;9.712;2024-01-30T07:06:51;6.20;1.00
85706;DHT22;76142;52.376;9.712;2024-01-30T07:09:18;6.20;1.00
85706;DHT22;76142;52.376;9.712;2024-01-30T07:11:44;6.20;1.00
85706;DHT22;76142;52.376;9.712;2024-01-30T07:14:09;6.10;1.00
85706;DHT22;76142;52.376;9.712;2024-01-30T07:16:35;6.10;1.00
85706;DHT22;76142;52.376;9.712;2024-01-30T07:19:01;6.20;1.00
85706;DHT22;76142;52.376;9.712;2024-01-30T07:21:27;6.10;1.00
85706;DHT22;76142;52.376;9.712;2024-01-30T07:23:57;6.10;1.00
85706;DHT22;76142;52.376;9.712;2024-01-30T07:26:23;6.10;1.00
85706;DHT22;76142;52.376;9.712;2024-01-30T07:28:48;6.20;1.00
85706;DHT22;76142;52.376;9.712;2024-01-30T07:31:15;6.20;1.00
85706;DHT22;76142;52.376;9.712;2024-01-30T07:33:41;6.20;1.00
85706;DHT22;76142;52.376;9.712;2024-01-30T07:36:07;6.20;1.00
85706;DHT22;76142;52.376;9.712;2024-01-30T07:38:34;6.20;1.00
85706;DHT22;76142;52.376;9.712;2024-01-30T07:40:59;6.30;1.00
85706;DHT22;76142;52.376;9.712;2024-01-30T07:43:25;6.30;1.00
85706;DHT22;76142;52.376;9.712;2024-01-30T07:45:51;6.40;1.00
85706;DHT22;76142;52.376;9.712;2024-01-30T07:48:16;6.30;1.00
85706;DHT22;76142;52.376;9.712;2024-01-30T07:50:42;6.30;1.00
85706;DHT22;76142;52.376;9.712;2024-01-30T07:53:08;6.40;1.00
85706;DHT22;76142;52.376;9.712;2024-01-30T07:55:35;6.40;1.00
85706;DHT22;76142;52.376;9.712;2024-01-30T07:58:01;6.50;1.00
85706;DHT22;76142;52.376;9.712;2024-01-30T08:00:27;6.60;1.00
85706;DHT22;76142;52.376;9.712;2024-01-30T08:02:54;6.70;1.00
85706;DHT22;76142;52.376;9.712;2024-01-30T08:05:21;6.80;1.00
85706;DHT22;76142;52.376;9.712;2024-01-30T08:07:48;7.00;1.00
85706;DHT22;76142;52.376;9.712;2024-01-30T08:10:14;6.70;1.00
85706;DHT22;76142;52.376;9.712;2024-01-30T08:12:41;6.70;1.00
85706;DHT22;76142;52.376;9.712;2024-01-30T08:15:07;6.60;1.00
85706;DHT22;76142;52.376;9.712;2024-01-30T08:17:33;6.60;1.00
85706;DHT22;76142;52.376;9.712;2024-01-30T08:19:59;6.60;1.00
85706;DHT22;76142;52.376;9.712;2024-01-30T08:22:25;6.60;1.00
85706;DHT22;76142;52.376;9.712;2024-01-30T08:24:50;6.60;1.00
85706;DHT22;76142;52.376;9.712;2024-01-30T08:27:16;6.60;1.00
85706;DHT22;76142;52.376;9.712;2024-01-30T08:29:42;6.60;1.00
85706;DHT22;76142;52.376;9.712;2024-01-30T08:32:07;6.60;1.00
85706;DHT22;76142;52.376;9.712;2024-01-30T08:34:33;6.60;1.00
85706;DHT22;76142;52.376;9.712;2024-01-30T08:36:59;6.70;1.00
85706;DHT22;76142;52.376;9.712;2024-01-30T08:39:25;6.70;1.00
85706;DHT22;76142;52.376;9.712;2024-01-30T08:41:50;6.70;1.00
85706;DHT22;76142;52.376;9.712;2024-01-30T08:44:16;6.80;1.00
85706;DHT22;76142;52.376;9.712;2024-01-30T08:46:46;6.80;1.00
85706;DHT22;76142;52.376;9.712;2024-01-30T08:49:13;6.80;1.00
85706;DHT22;76142;52.376;9.712;2024-01-30T08:51:39;6.90;1.00
85706;DHT22;76142;52.376;9.712;2024-01-30T08:54:05;6.90;1.00
85706;DHT22;76142;52.376;9.712;2024-01-30T08:56:30;6.90;1.00
85706;DHT22;76142;52.376;9.712;2024-01-30T08:58:56;7.00;1.00
85706;DHT22;76142;52.376;9.712;2024-01-30T09:01:22;7.00;99.90
85706;DHT22;76142;52.376;9.712;2024-01-30T09:03:47;7.10;99.90
85706;DHT22;76142;52.376;9.712;2024-01-30T09:06:13;7.20;99.90
85706;DHT22;76142;52.376;9.712;2024-01-30T09:08:39;7.30;99.90
85706;DHT22;76142;52.376;9.712;2024-01-30T09:11:14;7.30;99.90
85706;DHT22;76142;52.376;9.712;2024-01-30T09:13:40;7.40;99.90
85706;DHT22;76142;52.376;9.712;2024-01-30T09:16:06;7.50;99.90
85706;DHT22;76142;52.376;9.712;2024-01-30T09:18:32;7.60;1.00
85706;DHT22;76142;52.376;9.712;2024-01-30T09:20:58;7.70;1.00
85706;DHT22;76142;52.376;9.712;2024-01-30T09:23:25;7.70;1.00
85706;DHT22;76142;52.376;9.712;2024-01-30T09:25:50;7.80;1.00
85706;DHT22;76142;52.376;9.712;2024-01-30T09:28:17;7.90;99.90
85706;DHT22;76142;52.376;9.712;2024-01-30T09:30:43;8.00;99.90
85706;DHT22;76142;52.376;9.712;2024-01-30T09:33:09;8.10;99.90
85706;DHT22;76142;52.376;9.712;2024-01-30T09:35:35;8.30;1.00
85706;DHT22;76142;52.376;9.712;2024-01-30T09:38:02;8.50;99.90
85706;DHT22;76142;52.376;9.712;2024-01-30T09:40:27;8.60;20.50
85706;DHT22;76142;52.376;9.712;2024-01-30T09:42:54;8.70;94.40
85706;DHT22;76142;52.376;9.712;2024-01-30T09:45:24;8.80;99.90
85706;DHT22;76142;52.376;9.712;2024-01-30T09:47:50;8.90;1.00
85706;DHT22;76142;52.376;9.712;2024-01-30T09:50:16;8.80;99.90
85706;DHT22;76142;52.376;9.712;2024-01-30T09:52:46;8.70;1.00
85706;DHT22;76142;52.376;9.712;2024-01-30T09:55:12;8.80;1.00
85706;DHT22;76142;52.376;9.712;2024-01-30T09:57:38;8.80;99.90
85706;DHT22;76142;52.376;9.712;2024-01-30T10:00:05;8.80;99.90
85706;DHT22;76142;52.376;9.712;2024-01-30T10:02:34;8.80;1.00
85706;DHT22;76142;52.376;9.712;2024-01-30T10:05:00;8.90;99.90
85706;DHT22;76142;52.376;9.712;2024-01-30T10:07:26;8.90;99.90
85706;DHT22;76142;52.376;9.712;2024-01-30T10:09:53;8.90;99.90
85706;DHT22;76142;52.376;9.712;2024-01-30T10:12:19;9.00;99.90
85706;DHT22;76142;52.376;9.712;2024-01-30T10:14:44;9.10;99.90
85706;DHT22;76142;52.376;9.712;2024-01-30T10:17:11;9.10;1.00
85706;DHT22;76142;52.376;9.712;2024-01-30T10:19:41;9.20;1.00
85706;DHT22;76142;52.376;9.712;2024-01-30T10:22:07;9.20;1.00
85706;DHT22;76142;52.376;9.712;2024-01-30T10:24:36;9.30;99.90
85706;DHT22;76142;52.376;9.712;2024-01-30T10:27:02;9.30;99.90
85706;DHT22;76142;52.376;9.712;2024-01-30T10:29:28;9.20;1.00
85706;DHT22;76142;52.376;9.712;2024-01-30T10:32:05;9.30;99.90
85706;DHT22;76142;52.376;9.712;2024-01-30T10:34:31;9.30;99.90
85706;DHT22;76142;52.376;9.712;2024-01-30T10:37:08;9.50;1.00
85706;DHT22;76142;52.376;9.712;2024-01-30T10:39:44;9.50;1.00
85706;DHT22;76142;52.376;9.712;2024-01-30T10:42:15;9.50;1.00
85706;DHT22;76142;52.376;9.712;2024-01-30T10:50:27;9.50;47.80
85706;DHT22;76142;52.376;9.712;2024-01-30T10:52:54;9.60;1.00
85706;DHT22;76142;52.376;9.712;2024-01-30T10:55:21;9.60;79.90
85706;DHT22;76142;52.376;9.712;2024-01-30T10:57:48;9.70;1.00
85706;DHT22;76142;52.376;9.712;2024-01-30T11:00:15;9.70;1.00
85706;DHT22;76142;52.376;9.712;2024-01-30T11:02:46;9.70;1.00
85706;DHT22;76142;52.376;9.712;2024-01-30T11:05:12;9.70;1.00
85706;DHT22;76142;52.376;9.712;2024-01-30T11:07:39;9.70;99.90
85706;DHT22;76142;52.376;9.712;2024-01-30T11:10:08;9.70;1.00
85706;DHT22;76142;52.376;9.712;2024-01-30T11:12:39;9.70;99.90
85706;DHT22;76142;52.376;9.712;2024-01-30T11:15:15;9.70;1.00
85706;DHT22;76142;52.376;9.712;2024-01-30T11:20:21;9.60;35.50
85706;DHT22;76142;52.376;9.712;2024-01-30T11:22:47;9.60;71.90
85706;DHT22;76142;52.376;9.712;2024-01-30T11:25:14;9.50;1.00
85706;DHT22;76142;52.376;9.712;2024-01-30T11:27:41;9.50;1.00
85706;DHT22;76142;52.376;9.712;2024-01-30T11:30:08;9.50;1.00
85706;DHT22;76142;52.376;9.712;2024-01-30T11:32:34;9.60;99.90
85706;DHT22;76142;52.376;9.712;2024-01-30T11:34:59;9.70;99.90
85706;DHT22;76142;52.376;9.712;2024-01-30T11:37:25;9.80;1.00
85706;DHT22;76142;52.376;9.712;2024-01-30T11:39:54;9.80;1.00
85706;DHT22;76142;52.376;9.712;2024-01-30T11:42:24;9.90;98.50
85706;DHT22;76142;52.376;9.712;2024-01-30T11:44:53;9.90;82.90
85706;DHT22;76142;52.376;9.712;2024-01-30T11:47:18;10.00;1.00
85706;DHT22;76142;52.376;9.712;2024-01-30T11:49:44;10.00;99.90
85706;DHT22;76142;52.376;9.712;2024-01-30T11:52:10;9.90;1.00
85706;DHT22;76142;52.376;9.712;2024-01-30T11:54:39;10.00;1.00
85706;DHT22;76142;52.376;9.712;2024-01-30T11:57:05;10.00;1.00
85706;DHT22;76142;52.376;9.712;2024-01-30T11:59:31;10.10;99.90
85706;DHT22;76142;52.376;9.712;2024-01-30T12:01:56;10.10;1.00
85706;DHT22;76142;52.376;9.712;2024-01-30T12:04:22;10.30;1.00
85706;DHT22;76142;52.376;9.712;2024-01-30T12:06:51;10.20;1.00
85706;DHT22;76142;52.376;9.712;2024-01-30T12:09:17;10.20;1.00
85706;DHT22;76142;52.376;9.712;2024-01-30T12:11:47;10.30;1.00
85706;DHT22;76142;52.376;9.712;2024-01-30T12:14:13;10.40;1.00
85706;DHT22;76142;52.376;9.712;2024-01-30T12:16:40;10.50;1.00
85706;DHT22;76142;52.376;9.712;2024-01-30T12:19:07;10.60;99.90
85706;DHT22;76142;52.376;9.712;2024-01-30T12:21:33;10.80;99.90
85706;DHT22;76142;52.376;9.712;2024-01-30T12:24:00;10.90;1.00
85706;DHT22;76142;52.376;9.712;2024-01-30T12:26:26;11.00;1.00
85706;DHT22;76142;52.376;9.712;2024-01-30T12:28:55;11.20;99.90
85706;DHT22;76142;52.376;9.712;2024-01-30T12:31:27;11.20;26.70
85706;DHT22;76142;52.376;9.712;2024-01-30T12:33:53;11.20;1.00
85706;DHT22;76142;52.376;9.712;2024-01-30T12:36:19;11.30;1.00
85706;DHT22;76142;52.376;9.712;2024-01-30T12:38:45;11.40;99.90
85706;DHT22;76142;52.376;9.712;2024-01-30T12:41:10;11.50;99.90
85706;DHT22;76142;52.376;9.712;2024-01-30T12:43:36;11.50;99.90
85706;DHT22;76142;52.376;9.712;2024-01-30T12:46:03;11.40;99.90
85706;DHT22;76142;52.376;9.712;2024-01-30T12:48:29;11.50;99.90
85706;DHT22;76142;52.376;9.712;2024-01-30T12:50:56;11.50;13.10
85706;DHT22;76142;52.376;9.712;2024-01-30T12:53:22;11.50;1.00
85706;DHT22;76142;52.376;9.712;2024-01-30T12:55:47;11.60;1.00
85706;DHT22;76142;52.376;9.712;2024-01-30T12:58:15;11.60;13.50
85706;DHT22;76142;52.376;9.712;2024-01-30T13:00:41;11.60;1.00
85706;DHT22;76142;52.376;9.712;2024-01-30T13:03:09;11.50;54.00
85706;DHT22;76142;52.376;9.712;2024-01-30T13:05:35;11.60;1.00
85706;DHT22;76142;52.376;9.712;2024-01-30T13:08:01;11.70;1.00
85706;DHT22;76142;52.376;9.712;2024-01-30T13:10:27;11.70;1.00
85706;DHT22;76142;52.376;9.712;2024-01-30T13:12:53;11.70;1.00
85706;DHT22;76142;52.376;9.712;2024-01-30T13:15:18;11.70;1.00
85706;DHT22;76142;52.376;9.712;2024-01-30T13:17:44;11.70;1.00
85706;DHT22;76142;52.376;9.712;2024-01-30T13:20:13;11.70;21.30
85706;DHT22;76142;52.376;9.712;2024-01-30T13:22:43;11.80;1.00
85706;DHT22;76142;52.376;9.712;2024-01-30T13:25:09;11.80;1.00
85706;DHT22;76142;52.376;9.712;2024-01-30T13:27:36;11.80;2.80
85706;DHT22;76142;52.376;9.712;2024-01-30T13:30:03;11.80;19.10
85706;DHT22;76142;52.376;9.712;2024-01-30T13:32:29;11.70;99.90
85706;DHT22;76142;52.376;9.712;2024-01-30T13:34:55;11.70;99.90
85706;DHT22;76142;52.376;9.712;2024-01-30T13:37:22;11.60;1.00
85706;DHT22;76142;52.376;9.712;2024-01-30T13:39:48;11.60;99.90
85706;DHT22;76142;52.376;9.712;2024-01-30T13:42:13;11.50;99.90
85706;DHT22;76142;52.376;9.712;2024-01-30T13:44:39;11.50;99.90
85706;DHT22;76142;52.376;9.712;2024-01-30T13:47:05;11.40;1.00
85706;DHT22;76142;52.376;9.712;2024-01-30T13:49:31;11.30;1.00
85706;DHT22;76142;52.376;9.712;2024-01-30T13:51:56;11.20;1.00
85706;DHT22;76142;52.376;9.712;2024-01-30T13:54:23;11.20;98.80
85706;DHT22;76142;52.376;9.712;2024-01-30T13:56:49;11.20;1.00
85706;DHT22;76142;52.376;9.712;2024-01-30T13:59:15;11.10;99.90
85706;DHT22;76142;52.376;9.712;2024-01-30T14:01:46;11.00;1.00
85706;DHT22;76142;52.376;9.712;2024-01-30T14:04:12;11.00;1.00
85706;DHT22;76142;52.376;9.712;2024-01-30T14:06:40;10.90;1.00
85706;DHT22;76142;52.376;9.712;2024-01-30T14:09:06;10.90;1.00
85706;DHT22;76142;52.376;9.712;2024-01-30T14:11:32;10.90;1.00
85706;DHT22;76142;52.376;9.712;2024-01-30T14:16:40;10.80;99.90
85706;DHT22;76142;52.376;9.712;2024-01-30T14:19:06;10.80;1.00
85706;DHT22;76142;52.376;9.712;2024-01-30T14:21:32;10.80;1.00
85706;DHT22;76142;52.376;9.712;2024-01-30T14:23:57;10.80;1.00
85706;DHT22;76142;52.376;9.712;2024-01-30T14:26:23;10.80;1.00
85706;DHT22;76142;52.376;9.712;2024-01-30T14:28:49;10.80;1.00
85706;DHT22;76142;52.376;9.712;2024-01-30T14:31:15;10.80;1.00
85706;DHT22;76142;52.376;9.712;2024-01-30T14:33:42;10.80;1.00
85706;DHT22;76142;52.376;9.712;2024-01-30T14:36:08;10.80;1.00
85706;DHT22;76142;52.376;9.712;2024-01-30T14:38:36;10.80;1.00
85706;DHT22;76142;52.376;9.712;2024-01-30T14:41:02;10.80;1.00
85706;DHT22;76142;52.376;9.712;2024-01-30T14:43:29;10.80;1.00
85706;DHT22;76142;52.376;9.712;2024-01-30T14:45:57;10.70;1.00
85706;DHT22;76142;52.376;9.712;2024-01-30T14:48:23;10.70;46.50
85706;DHT22;76142;52.376;9.712;2024-01-30T14:50:49;10.70;3.30
85706;DHT22;76142;52.376;9.712;2024-01-30T14:53:14;10.70;99.90
85706;DHT22;76142;52.376;9.712;2024-01-30T14:55:40;10.70;99.90
85706;DHT22;76142;52.376;9.712;2024-01-30T14:58:06;10.80;99.90
85706;DHT22;76142;52.376;9.712;2024-01-30T15:00:31;10.80;99.90
85706;DHT22;76142;52.376;9.712;2024-01-30T15:02:57;10.80;1.00
85706;DHT22;76142;52.376;9.712;2024-01-30T15:05:23;10.90;99.90
85706;DHT22;76142;52.376;9.712;2024-01-30T15:07:48;10.90;99.90
85706;DHT22;76142;52.376;9.712;2024-01-30T15:10:14;10.90;99.90
85706;DHT22;76142;52.376;9.712;2024-01-30T15:12:40;10.80;1.00
85706;DHT22;76142;52.376;9.712;2024-01-30T15:15:07;10.80;1.00
85706;DHT22;76142;52.376;9.712;2024-01-30T15:17:33;10.80;1.00
85706;DHT22;76142;52.376;9.712;2024-01-30T15:19:59;10.80;1.00
85706;DHT22;76142;52.376;9.712;2024-01-30T15:22:25;10.80;6.70
85706;DHT22;76142;52.376;9.712;2024-01-30T15:24:51;10.80;1.00
85706;DHT22;76142;52.376;9.712;2024-01-30T15:27:17;10.80;95.20
85706;DHT22;76142;52.376;9.712;2024-01-30T15:29:45;10.80;99.90
85706;DHT22;76142;52.376;9.712;2024-01-30T15:32:11;10.80;99.90
85706;DHT22;76142;52.376;9.712;2024-01-30T15:34:36;10.80;99.90
85706;DHT22;76142;52.376;9.712;2024-01-30T15:37:02;10.80;99.90
85706;DHT22;76142;52.376;9.712;2024-01-30T15:39:28;10.70;99.90
85706;DHT22;76142;52.376;9.712;2024-01-30T15:41:54;10.80;1.00
85706;DHT22;76142;52.376;9.712;2024-01-30T15:44:20;10.80;99.90
85706;DHT22;76142;52.376;9.712;2024-01-30T15:46:46;10.70;99.90
85706;DHT22;76142;52.376;9.712;2024-01-30T15:49:12;10.70;1.00
85706;DHT22;76142;52.376;9.712;2024-01-30T15:51:37;10.70;1.00
85706;DHT22;76142;52.376;9.712;2024-01-30T15:54:03;10.70;1.00
85706;DHT22;76142;52.376;9.712;2024-01-30T15:56:28;10.70;1.00
85706;DHT22;76142;52.376;9.712;2024-01-30T15:58:54;10.70;1.00